Página principal
METAR-TAF:

METAR-TAF

Aeroportos :

Providenciales, Ilhas Turcas e Caicos

latitude: 21-46-25N, longitude: 072-15-57W, altura: 5 m

Observação actual do tempo

O boletim foi feito há 1 hora e 58 minutos, às 21:00 UTC
Vento 10 kt de este
Temperatura 25°C
Humidade 69%
Pressão 1015 hPa
Visibilidade 10 km ou mais
Poucas nuvensa uma altura de 1200 ft
Nuvens dispersasa uma altura de 1800 ft
aguaceiros nas vizinhanças

METAR: MBPV 022100Z 10010KT 9999 VCSH FEW012 SCT018 25/19 Q1015

Hora: 17:58 (22:58 UTC)

Previsão

O boletim foi feito há 12 horas e 28 minutos, às 10:30 UTC
Previsão válida de 02 às 12 UTC a 03 às 12 UTC
Vento 15 kt de nordeste com rajadas de 25 kt
Visibilidade 10 km ou mais
Nuvens dispersasa uma altura de 3000 ft

TAF: MBPV 021030Z 0212/0312 04015G25KT 9999 SCT030

Observações e previsões do tempo de mais de 4000 aeroportos (mensagens METAR e TAF).

As estações disponíveis são os pontos amarelos e vermelhos sobre o mapa.

Mova o rato sobre o mapa para ver o nome da estação.

Depois clique no ponto para visualizar as observações e previsões meteorológicas.

Para alterar o mapa : clique nos botões verdes com uma cruz preta para aumentar o zoom; no botão verde com uma pitada de zoom; ou nas setas verdes para mapas adjacentes.


METAR-TAF: